National City (44) Station Data

Red Flag Warning: No
Fire Weather Zone: 243
SDGE Region: Metro
Lat/Lon: 32.654/-117.097

Observations

Time Wind Speed/Gust Temp(F) RH Fuel Moist Fuel Temp(F) Dewpt(F) Tmax(F) Tmin(F) Accum Precip 10-min Precip SL Press(mb)
2/27 11:40pm 275 10 G 16 54° 93% - - 52° 58.4° 52.3° - - -
2/27 11:20pm 258 7 G 12 54° 95% - - 53° 58.4° 52.3° - - -
2/27 11:10pm 269 4 G 8 54° 95% - - 53° 58.4° 52.3° - - -
2/27 11:00pm 280 5 G 9 54° 95% - - 53° 58.4° 52.3° - - -
2/27 10:50pm 278 7 G 13 54° 95% - - 53° 58.4° 52.3° - - -
2/27 10:40pm 279 9 G 15 55° 94% - - 53° 58.4° 52.3° - - -
2/27 10:30pm 282 9 G 16 55° 94% - - 53° 58.4° 52.3° - - -
2/27 10:20pm 289 8 G 17 55° 93% - - 54° 58.4° 52.3° - - -
2/27 10:10pm 261 11 G 21 57° 92% - - 54° 58.4° 52.3° - - -
2/27 10:00pm 188 11 G 18 57° 91% - - 55° 58.4° 52.3° - - -
2/27 9:50pm 198 11 G 18 57° 90% - - 55° 58.4° 52.3° - - -
2/27 9:40pm 201 10 G 16 57° 89% - - 54° 58.4° 52.3° - - -
2/27 9:30pm 196 9 G 17 57° 87% - - 54° 58.4° 52.3° - - -
2/27 9:20pm 190 9 G 15 58° 86% - - 53° 58.4° 52.3° - - -
2/27 9:10pm 187 9 G 17 57° 87% - - 53° 58.4° 52.3° - - -
2/27 9:00pm 186 10 G 16 57° 88% - - 54° 58.4° 52.3° - - -
2/27 8:50pm 187 12 G 21 57° 89% - - 54° 58.4° 52.3° - - -
2/27 8:40pm 180 13 G 21 57° 89% - - 54° 58.4° 52.3° - - -
2/27 8:30pm 179 11 G 20 57° 89% - - 54° 58.4° 52.3° - - -
2/27 8:20pm 183 9 G 16 57° 88% - - 54° 58.4° 52.3° - - -
2/27 8:10pm 180 10 G 20 57° 87% - - 54° 58.4° 52.3° - - -
2/27 8:00pm 184 9 G 16 57° 87% - - 53° 58.4° 52.3° - - -
2/27 7:50pm 189 10 G 16 57° 88% - - 54° 58.4° 52.3° - - -
2/27 7:40pm 180 9 G 15 57° 89% - - 54° 58.4° 52.3° - - -
2/27 7:30pm 190 10 G 16 57° 90% - - 54° 58.4° 52.3° - - -
2/27 7:20pm 188 10 G 20 57° 89% - - 54° 58.4° 52.3° - - -
2/27 7:10pm 186 10 G 18 57° 90% - - 54° 58.4° 52.3° - - -
2/27 7:00pm 191 10 G 16 57° 90% - - 54° 58.4° 52.3° - - -
2/27 6:50pm 189 12 G 20 57° 89% - - 54° 58.4° 52.3° - - -
2/27 6:40pm 185 10 G 16 57° 90% - - 55° 58.4° 52.3° - - -
2/27 6:30pm 189 11 G 19 57° 91% - - 55° 58.4° 52.3° - - -
2/27 6:20pm 174 10 G 19 57° 92% - - 55° 58.4° 52.3° - - -
2/27 6:10pm 183 8 G 17 57° 92% - - 55° 58.4° 52.3° - - -
2/27 6:00pm 185 10 G 17 57° 92% - - 55° 58.4° 52.3° - - -
2/27 5:50pm 180 9 G 14 57° 91% - - 55° 58.4° 52.3° - - -
2/27 5:40pm 187 8 G 14 57° 91% - - 55° 58.4° 52.3° - - -
2/27 5:30pm 180 9 G 17 57° 91% - - 55° 58.4° 52.3° - - -
2/27 5:20pm 179 9 G 16 57° 91% - - 55° 58.4° 52.3° - - -
2/27 5:10pm 184 11 G 19 58° 91% - - 55° 58.4° 52.3° - - -
2/27 5:00pm 185 12 G 21 58° 90% - - 55° 58.4° 52.3° - - -
2/27 4:50pm 186 11 G 18 58° 90% - - 55° 58.4° 52.3° - - -
2/27 4:40pm 191 10 G 19 58° 91% - - 55° 58.4° 52.3° - - -
2/27 4:30pm 192 11 G 22 58° 91% - - 55° 58.4° 52.3° - - -
2/27 4:20pm 192 12 G 20 58° 90% - - 55° 58.4° 52.3° - - -
2/27 4:10pm 194 11 G 18 58° 90% - - 55° 58.4° 52.3° - - -
2/27 4:00pm 199 12 G 21 57° 90% - - 55° 58.4° 52.3° - - -
2/27 3:50pm 194 15 G 26 58° 90% - - 55° 58.4° 52.3° - - -
2/27 3:40pm 196 11 G 20 58° 91% - - 55° 58.4° 52.3° - - -
2/27 3:30pm 191 10 G 17 58° 90% - - 55° 58.4° 52.3° - - -
2/27 3:20pm 180 10 G 17 58° 91% - - 55° 58.4° 52.3° - - -
2/27 3:10pm 168 10 G 20 58° 91% - - 55° 58.4° 52.3° - - -
2/27 3:00pm 178 11 G 18 58° 91% - - 55° 58.4° 52.3° - - -
2/27 2:50pm 190 12 G 20 58° 91% - - 55° 58.4° 52.3° - - -
2/27 2:40pm 188 14 G 21 57° 91% - - 55° 58.4° 52.3° - - -
2/27 2:30pm 194 13 G 20 57° 91% - - 55° 58.4° 52.3° - - -
2/27 2:20pm 193 14 G 23 57° 92% - - 55° 58.4° 52.3° - - -
2/27 2:10pm 193 13 G 23 57° 91% - - 54° 58.4° 52.3° - - -
2/27 2:00pm 193 14 G 22 57° 91% - - 54° 58.4° 52.3° - - -
2/27 1:50pm 197 15 G 28 57° 91% - - 54° 58.4° 52.3° - - -
2/27 1:40pm 196 16 G 30 57° 91% - - 54° 58.4° 52.3° - - -
2/27 1:30pm 189 16 G 30 57° 91% - - 54° 58.4° 52.3° - - -
2/27 1:20pm 181 14 G 25 57° 90% - - 55° 58.4° 52.3° - - -
2/27 1:10pm 187 13 G 20 57° 90% - - 55° 58.4° 52.3° - - -
2/27 1:00pm 194 15 G 25 57° 90% - - 54° 58.4° 52.3° - - -
2/27 12:50pm 198 15 G 26 57° 91% - - 54° 58.4° 52.3° - - -
2/27 12:40pm 193 16 G 24 57° 91% - - 54° 58.4° 52.3° - - -
2/27 12:30pm 190 14 G 26 57° 91% - - 54° 58.4° 52.3° - - -
2/27 12:20pm 192 16 G 28 57° 91% - - 54° 58.4° 52.3° - - -
2/27 12:10pm 196 15 G 27 57° 91% - - 54° 58.4° 52.3° - - -
2/27 12:00pm 196 18 G 30 57° 90% - - 54° 58.4° 52.3° - - -
2/27 11:50am 190 19 G 29 57° 91% - - 54° 58.4° 52.3° - - -
2/27 11:40am 196 15 G 26 57° 92% - - 55° 58.4° 52.3° - - -
2/27 11:30am 199 17 G 27 57° 91% - - 55° 58.4° 52.3° - - -
2/27 11:20am 196 14 G 25 57° 90% - - 54° 58.4° 52.3° - - -
2/27 11:10am 195 17 G 28 57° 90% - - 54° 58.4° 52.3° - - -
2/27 11:00am 193 18 G 27 57° 90% - - 54° 58.4° 52.3° - - -
2/27 10:50am 192 13 G 25 57° 90% - - 54° 58.4° 52.3° - - -
2/27 10:40am 193 16 G 24 57° 91% - - 54° 58.4° 52.3° - - -
2/27 10:30am 201 16 G 27 57° 92% - - 55° 58.4° 52.3° - - -
2/27 10:20am 200 14 G 24 57° 93% - - 55° 58.4° 52.3° - - -
2/27 10:10am 205 10 G 15 57° 93% - - 55° 58.4° 52.3° - - -
2/27 10:00am 206 13 G 24 57° 92% - - 55° 58.4° 52.3° - - -
2/27 9:50am 208 14 G 25 57° 94% - - 55° 58.4° 52.3° - - -
2/27 9:40am 210 12 G 22 57° 94% - - 55° 58.4° 52.3° - - -
2/27 9:30am 214 11 G 25 57° 94% - - 56° 58.4° 52.3° - - -
2/27 9:20am 196 12 G 21 58° 93% - - 55° 58.4° 52.3° - - -
2/27 9:10am 194 12 G 22 58° 92% - - 56° 58.4° 52.3° - - -
2/27 9:00am 197 11 G 20 58° 92% - - 56° 58.4° 52.3° - - -
2/27 8:50am 195 12 G 20 58° 91% - - 55° 58.3° 52.3° - - -
2/27 8:40am 194 13 G 20 58° 90% - - 55° 58.3° 52.3° - - -
2/27 8:30am 189 12 G 20 58° 91% - - 55° 58.3° 52.3° - - -
2/27 8:20am 194 12 G 24 58° 93% - - 56° 58.3° 52.3° - - -
2/27 8:10am 197 13 G 21 58° 94% - - 56° 58.3° 52.3° - - -
2/27 8:00am 196 11 G 19 58° 94% - - 56° 58.3° 52.3° - - -
2/27 7:50am 199 14 G 25 58° 94% - - 56° 58.3° 52.3° - - -
2/27 7:40am 197 11 G 22 57° 94% - - 56° 58.3° 52.3° - - -
2/27 7:30am 193 10 G 18 57° 94% - - 56° 58.3° 52.3° - - -
2/27 7:20am 195 13 G 20 57° 93% - - 56° 58.3° 52.3° - - -
2/27 7:10am 196 12 G 19 57° 93% - - 56° 58.3° 52.3° - - -
2/27 7:00am 193 12 G 20 57° 93% - - 56° 58.3° 52.3° - - -
2/27 6:50am 194 11 G 20 57° 93% - - 56° 58.3° 52.3° - - -
2/27 6:40am 197 13 G 22 58° 93% - - 56° 58.3° 52.3° - - -
2/27 6:30am 194 12 G 21 58° 92% - - 56° 58.3° 52.3° - - -
2/27 6:20am 194 13 G 22 58° 92% - - 55° 58.3° 52.3° - - -
2/27 6:10am 193 13 G 20 58° 92% - - 55° 58.2° 52.3° - - -
2/27 6:00am 189 10 G 18 57° 93% - - 55° 58° 52.3° - - -
2/27 5:50am 191 12 G 20 57° 93% - - 55° 58° 52.3° - - -
2/27 5:40am 191 13 G 21 57° 94% - - 56° 58° 52.3° - - -
2/27 5:30am 196 14 G 25 57° 94% - - 56° 58° 52.3° - - -
2/27 5:20am 192 14 G 24 57° 93% - - 55° 58° 52.3° - - -
2/27 5:10am 192 12 G 21 57° 93% - - 56° 58° 52.3° - - -
2/27 5:00am 194 13 G 22 57° 95% - - 56° 57.8° 52.3° - - -
2/27 4:50am 194 11 G 23 57° 95% - - 56° 57.8° 52.3° - - -
2/27 4:40am 197 12 G 19 57° 95% - - 56° 57.6° 52.3° - - -
2/27 4:30am 195 13 G 21 57° 96% - - 56° 57.6° 52.3° - - -
2/27 4:20am 182 9 G 16 56° 96% - - 55° 57.2° 52.3° - - -
2/27 4:10am 155 6 G 11 55° 96% - - 54° 55.6° 52.3° - - -
2/27 4:00am 144 5 G 10 55° 96% - - 54° 55.3° 52.3° - - -
2/27 3:50am 130 5 G 9 54° 96% - - 53° 54.9° 52.3° - - -
2/27 3:40am 131 6 G 9 54° 96% - - 53° 54.5° 52.3° - - -
2/27 3:30am 100 3 G 5 53° 96% - - 52° 53.8° 52.3° - - -
2/27 3:20am 95 4 G 5 53° 96% - - 52° 53.6° 52.3° - - -
2/27 3:10am 79 4 G 6 53° 96% - - 52° 53.5° 52.3° - - -
2/27 3:00am 77 4 G 6 53° 96% - - 52° 53.5° 52.3° - - -
2/27 2:50am 89 3 G 4 53° 96% - - 52° 53.5° 52.3° - - -
2/27 2:40am 83 3 G 6 53° 96% - - 52° 53.5° 52.3° - - -
2/27 2:30am 76 4 G 6 53° 95% - - 51° 53.5° 52.3° - - -
2/27 2:20am 83 3 G 5 53° 96% - - 52° 53.5° 52.3° - - -
2/27 2:10am 78 4 G 6 53° 95% - - 51° 53.5° 52.3° - - -
2/27 2:00am 78 3 G 5 53° 95% - - 51° 53.5° 52.3° - - -
2/27 1:50am 68 3 G 4 53° 95% - - 51° 53.5° 52.3° - - -
2/27 1:40am 67 4 G 5 53° 95% - - 51° 53.5° 52.3° - - -
2/27 1:30am 67 3 G 5 53° 95% - - 51° 53.5° 52.3° - - -
2/27 1:20am 68 4 G 6 53° 95% - - 51° 53.5° 52.3° - - -
2/27 1:10am 73 4 G 6 53° 94% - - 51° 53.5° 52.3° - - -
2/27 1:00am 82 4 G 5 53° 94% - - 51° 53.5° 52.4° - - -
2/27 12:50am 82 3 G 5 53° 94% - - 51° 53.5° 52.5° - - -
2/27 12:40am 94 3 G 4 53° 93% - - 51° 53.5° 52.5° - - -
2/27 12:30am 97 3 G 5 53° 93% - - 51° 53.5° 52.5° - - -
2/27 12:20am 104 3 G 5 53° 93% - - 51° 53.5° 52.7° - - -
2/27 12:10am 109 2 G 3 53° 92% - - 51° 53.5° 52.7° - - -
2/27 12:00am 102 2 G 4 53° 92% - - 51° 59.9° 50.5° - - -
2/26 11:50pm 131 2 G 4 53° 92% - - 51° 59.9° 50.5° - - -
2/26 11:40pm 125 2 G 3 53° 93% - - 51° 59.9° 50.5° - - -
2/26 11:30pm 128 2 G 4 53° 92% - - 51° 59.9° 50.5° - - -
2/26 11:20pm 140 3 G 4 53° 92% - - 51° 59.9° 50.5° - - -
2/26 11:10pm 134 2 G 3 53° 91% - - 51° 59.9° 50.5° - - -
2/26 11:00pm 195 3 G 5 53° 91% - - 51° 59.9° 50.5° - - -
2/26 10:50pm 206 4 G 7 54° 89% - - 50° 59.9° 50.5° - - -
2/26 10:40pm 206 4 G 6 54° 87% - - 50° 59.9° 50.5° - - -
2/26 10:30pm 208 4 G 7 55° 85% - - 50° 59.9° 50.5° - - -
2/26 10:20pm 204 3 G 5 55° 86% - - 51° 59.9° 50.5° - - -
2/26 10:10pm 185 3 G 5 55° 87% - - 51° 59.9° 50.5° - - -
2/26 10:00pm 168 2 G 4 55° 86% - - 51° 59.9° 50.5° - - -
2/26 9:50pm 155 2 G 4 55° 85% - - 50° 59.9° 50.5° - - -
2/26 9:40pm 170 4 G 7 55° 83% - - 50° 59.9° 50.5° - - -
2/26 9:30pm 200 3 G 6 55° 84% - - 50° 59.9° 50.5° - - -
2/26 9:20pm 202 3 G 6 55° 84% - - 50° 59.9° 50.5° - - -
2/26 9:10pm 201 3 G 5 55° 84% - - 50° 59.9° 50.5° - - -
2/26 9:00pm 202 3 G 5 55° 84% - - 51° 59.9° 50.5° - - -
2/26 8:50pm 207 3 G 5 55° 85% - - 51° 59.9° 50.5° - - -
2/26 8:40pm 213 4 G 9 55° 86% - - 51° 59.9° 50.5° - - -
2/26 8:30pm 214 4 G 8 55° 87% - - 51° 59.9° 50.5° - - -
2/26 8:20pm 213 5 G 8 55° 88% - - 52° 59.9° 50.5° - - -
2/26 8:10pm 212 3 G 8 55° 88% - - 52° 59.9° 50.5° - - -
2/26 8:00pm 178 2 G 4 55° 84% - - 51° 59.9° 50.5° - - -
2/26 7:50pm 189 2 G 4 55° 84% - - 51° 59.9° 50.5° - - -
2/26 7:40pm 197 3 G 5 55° 84% - - 51° 59.9° 50.5° - - -
2/26 7:30pm 204 3 G 5 55° 82% - - 50° 59.9° 50.5° - - -
2/26 7:20pm 202 3 G 5 55° 81% - - 50° 59.9° 50.5° - - -
2/26 7:10pm 223 4 G 8 55° 82% - - 50° 59.9° 50.5° - - -
2/26 7:00pm 216 3 G 7 55° 83% - - 50° 59.9° 50.5° - - -
2/26 6:50pm 219 3 G 7 55° 83% - - 50° 59.9° 50.5° - - -
2/26 6:40pm 214 4 G 7 55° 83% - - 50° 59.9° 50.5° - - -
2/26 6:30pm 205 5 G 8 56° 82% - - 50° 59.9° 50.5° - - -
2/26 6:20pm 209 5 G 8 56° 80% - - 50° 59.9° 50.5° - - -
2/26 6:10pm 197 6 G 11 56° 81% - - 50° 59.9° 50.5° - - -
2/26 6:00pm 207 7 G 12 56° 81% - - 50° 59.9° 50.5° - - -
2/26 5:50pm 206 7 G 12 56° 80% - - 50° 59.9° 50.5° - - -
2/26 5:40pm 204 8 G 14 56° 81% - - 50° 59.9° 50.5° - - -
2/26 5:30pm 205 6 G 13 56° 82% - - 51° 59.9° 50.5° - - -
2/26 5:20pm 208 7 G 12 56° 81% - - 51° 59.9° 50.5° - - -
2/26 5:10pm 205 8 G 14 56° 79% - - 50° 59.9° 50.5° - - -
2/26 5:00pm 212 9 G 16 57° 78% - - 50° 59.9° 50.5° - - -